Time;durP1;ratioP1;P1;durP2;ratioP2;P2;SDS_P1;SDS_P2;PMS_P1;PMS_P2;Temp;Humidity;BMP_temperature;BMP_pressure;BME280_temperature;BME280_humidity;BME280_pressure;Samples;Min_cycle;Max_cycle;Signal;HPM_P1;HPM_P2
2023/06/10 00:00:43;;;;;;;9.27;8.40;;;;;;;;;;5158597;27;20142;-69
2023/06/10 00:03:09;;;;;;;8.77;8.07;;;;;;;;;;5156785;27;20073;-69
2023/06/10 00:05:34;;;;;;;9.18;8.43;;;;;;;;;;5137539;27;20432;-69
2023/06/10 00:08:01;;;;;;;9.43;8.63;;;;;;;;;;5136348;27;20087;-69
2023/06/10 00:10:27;;;;;;;9.90;9.00;;;;;;;;;;5137675;27;20386;-69
2023/06/10 00:12:52;;;;;;;9.60;8.75;;;;;;;;;;5137326;27;20019;-69
2023/06/10 00:15:17;;;;;;;8.82;8.02;;;;;;;;;;5137918;27;20098;-62
2023/06/10 00:17:43;;;;;;;9.07;8.35;;;;;;;;;;5137581;27;20116;-61
2023/06/10 00:20:11;;;;;;;9.98;9.00;;;;;;;;;;5136109;27;20031;-61
2023/06/10 00:22:37;;;;;;;9.35;8.63;;;;;;;;;;5137354;27;20034;-69
2023/06/10 00:25:03;;;;;;;12.98;9.85;;;;;;;;;;5136671;27;20019;-69
2023/06/10 00:27:34;;;;;;;11.07;9.85;;;;;;;;;;5137506;27;20011;-68
2023/06/10 00:30:01;;;;;;;11.38;10.27;;;;;;;;;;5136994;27;20473;-69
2023/06/10 00:32:26;;;;;;;10.70;9.55;;;;;;;;;;5137358;27;20114;-62
2023/06/10 00:34:53;;;;;;;10.07;9.18;;;;;;;;;;5136161;27;20143;-62
2023/06/10 00:37:18;;;;;;;9.30;8.40;;;;;;;;;;5137190;27;20027;-62
2023/06/10 00:39:43;;;;;;;8.95;8.13;;;;;;;;;;5137231;27;20359;-62
2023/06/10 00:42:10;;;;;;;8.60;7.80;;;;;;;;;;5136989;27;20066;-61
2023/06/10 00:44:36;;;;;;;9.30;8.40;;;;;;;;;;5118606;27;20478;-61
2023/06/10 00:47:02;;;;;;;9.20;8.30;;;;;;;;;;5135595;27;20019;-59
2023/06/10 00:49:28;;;;;;;11.10;9.98;;;;;;;;;;5137047;27;20332;-60
2023/06/10 00:51:54;;;;;;;10.05;9.05;;;;;;;;;;5136677;27;20043;-60
2023/06/10 00:54:19;;;;;;;10.30;8.20;;;;;;;;;;5135702;27;20038;-62
2023/06/10 00:56:47;;;;;;;9.18;8.45;;;;;;;;;;5136960;27;20374;-69
2023/06/10 00:59:14;;;;;;;9.75;8.85;;;;;;;;;;5135264;27;20070;-69
2023/06/10 01:01:39;;;;;;;9.73;8.82;;;;;;;;;;5135289;27;20038;-69
2023/06/10 01:04:04;;;;;;;9.50;8.70;;;;;;;;;;5135240;27;20020;-68
2023/06/10 01:06:47;;;;;;;9.50;8.73;;;;;;;;;;5136553;27;20053;-67
2023/06/10 01:09:30;;;;;;;10.77;8.82;;;;;;;;;;5136291;27;20023;-67
2023/06/10 01:12:02;;;;;;;9.15;8.38;;;;;;;;;;5136542;27;20027;-60
2023/06/10 01:14:28;;;;;;;10.65;9.68;;;;;;;;;;5136482;27;20035;-60
2023/06/10 01:16:54;;;;;;;10.07;9.13;;;;;;;;;;5135079;27;20080;-63
2023/06/10 01:19:19;;;;;;;10.57;9.48;;;;;;;;;;5134854;27;20194;-60
2023/06/10 01:21:48;;;;;;;8.80;8.05;;;;;;;;;;5136331;27;20450;-60
2023/06/10 01:24:14;;;;;;;8.60;7.93;;;;;;;;;;5134724;27;20019;-61
2023/06/10 01:26:42;;;;;;;9.90;8.57;;;;;;;;;;5135727;27;20027;-62
2023/06/10 01:29:08;;;;;;;11.60;8.82;;;;;;;;;;5134467;27;20019;-69
2023/06/10 01:31:36;;;;;;;9.75;8.65;;;;;;;;;;5134772;27;20070;-69
2023/06/10 01:34:02;;;;;;;10.45;9.38;;;;;;;;;;5135804;27;20023;-69
2023/06/10 01:36:28;;;;;;;12.70;9.07;;;;;;;;;;5135783;27;20031;-68
2023/06/10 01:38:54;;;;;;;9.65;8.57;;;;;;;;;;5134386;27;20027;-68
2023/06/10 01:41:21;;;;;;;8.65;7.85;;;;;;;;;;5135694;27;20083;-61
2023/06/10 01:43:46;;;;;;;8.43;7.72;;;;;;;;;;5134578;27;20015;-61
2023/06/10 01:46:13;;;;;;;8.57;7.70;;;;;;;;;;5135804;27;20411;-62
2023/06/10 01:48:38;;;;;;;9.27;8.38;;;;;;;;;;5134505;27;20114;-61
2023/06/10 01:51:04;;;;;;;9.52;8.73;;;;;;;;;;5135530;27;20391;-61
2023/06/10 01:53:29;;;;;;;8.77;8.02;;;;;;;;;;5134482;27;20084;-61
2023/06/10 01:55:54;;;;;;;8.20;7.25;;;;;;;;;;5135734;27;20073;-61
2023/06/10 01:58:20;;;;;;;8.25;7.65;;;;;;;;;;5134217;27;20493;-62
2023/06/10 02:00:45;;;;;;;7.53;6.70;;;;;;;;;;5134359;27;20038;-69
2023/06/10 02:03:11;;;;;;;7.53;6.88;;;;;;;;;;5135438;27;20481;-68
2023/06/10 02:05:36;;;;;;;7.45;6.25;;;;;;;;;;5133524;27;20031;-68
2023/06/10 02:08:02;;;;;;;7.30;6.63;;;;;;;;;;5134173;27;20030;-68
2023/06/10 02:10:27;;;;;;;7.50;6.80;;;;;;;;;;5133170;27;20041;-69
2023/06/10 02:12:52;;;;;;;7.55;6.95;;;;;;;;;;5135166;27;20034;-69
2023/06/10 02:15:18;;;;;;;8.32;7.53;;;;;;;;;;5135291;27;20035;-69
2023/06/10 02:17:46;;;;;;;8.40;7.40;;;;;;;;;;5133409;27;20023;-69
2023/06/10 02:20:11;;;;;;;7.78;7.03;;;;;;;;;;5134845;27;20030;-69
2023/06/10 02:22:37;;;;;;;8.70;7.90;;;;;;;;;;5133593;27;20019;-69
2023/06/10 02:25:03;;;;;;;10.70;8.02;;;;;;;;;;5133772;27;20023;-62
2023/06/10 02:27:31;;;;;;;9.45;7.95;;;;;;;;;;5133755;27;20031;-68
2023/06/10 02:29:56;;;;;;;9.73;7.90;;;;;;;;;;5132837;27;20025;-68
2023/06/10 02:32:22;;;;;;;8.40;7.60;;;;;;;;;;5133576;27;20063;-68
2023/06/10 02:34:48;;;;;;;9.98;7.95;;;;;;;;;;5133332;27;20054;-69
2023/06/10 02:37:15;;;;;;;8.88;7.97;;;;;;;;;;5133192;27;20060;-67
2023/06/10 02:39:40;;;;;;;10.27;7.85;;;;;;;;;;5133693;27;20470;-61
2023/06/10 02:42:10;;;;;;;7.82;7.00;;;;;;;;;;5133008;27;20114;-61
2023/06/10 02:44:36;;;;;;;8.07;7.28;;;;;;;;;;5133188;28;20035;-59
2023/06/10 02:47:02;;;;;;;7.75;7.13;;;;;;;;;;5133605;28;20019;-59
2023/06/10 02:49:28;;;;;;;7.68;6.75;;;;;;;;;;5133477;28;20027;-59
2023/06/10 02:51:54;;;;;;;8.15;6.90;;;;;;;;;;5133265;28;20043;-58
2023/06/10 02:54:20;;;;;;;7.03;6.38;;;;;;;;;;5133801;28;20023;-68
2023/06/10 02:56:47;;;;;;;7.32;6.43;;;;;;;;;;5133672;28;20067;-69
2023/06/10 02:59:18;;;;;;;6.95;6.20;;;;;;;;;;5133664;28;20035;-61
2023/06/10 03:01:43;;;;;;;6.40;5.82;;;;;;;;;;5133465;28;20026;-60
2023/06/10 03:04:13;;;;;;;6.50;5.97;;;;;;;;;;5133650;28;20076;-60
2023/06/10 03:06:40;;;;;;;6.57;5.97;;;;;;;;;;5133525;28;20043;-66
2023/06/10 03:09:15;;;;;;;6.03;5.53;;;;;;;;;;5134707;27;20023;-66
2023/06/10 03:11:43;;;;;;;6.30;5.70;;;;;;;;;;5133266;28;20027;-68
2023/06/10 03:14:09;;;;;;;7.88;7.18;;;;;;;;;;5133488;28;20033;-68
2023/06/10 03:16:34;;;;;;;7.93;7.28;;;;;;;;;;5133421;28;20421;-69
2023/06/10 03:19:00;;;;;;;6.13;5.72;;;;;;;;;;5133468;28;20071;-69
2023/06/10 03:21:26;;;;;;;7.40;5.70;;;;;;;;;;5133136;28;20058;-69
2023/06/10 03:23:53;;;;;;;6.40;5.85;;;;;;;;;;5133074;28;20095;-69
2023/06/10 03:26:21;;;;;;;8.93;7.13;;;;;;;;;;5116325;28;20011;-69
2023/06/10 03:28:47;;;;;;;7.38;6.13;;;;;;;;;;5133138;28;20481;-69
2023/06/10 03:31:12;;;;;;;10.95;6.47;;;;;;;;;;5134181;28;20039;-69
2023/06/10 03:33:38;;;;;;;6.57;5.97;;;;;;;;;;5134599;27;20450;-68
2023/06/10 03:36:04;;;;;;;6.68;6.07;;;;;;;;;;5133407;28;20046;-68
2023/06/10 03:38:30;;;;;;;6.40;5.75;;;;;;;;;;5134574;27;20469;-69
2023/06/10 03:40:55;;;;;;;6.55;5.95;;;;;;;;;;5132730;28;20027;-61
2023/06/10 03:43:21;;;;;;;8.27;6.50;;;;;;;;;;5133009;28;20072;-61
2023/06/10 03:45:49;;;;;;;6.75;6.15;;;;;;;;;;5133073;28;20106;-60
2023/06/10 03:48:14;;;;;;;8.85;7.18;;;;;;;;;;5133650;27;20041;-59
2023/06/10 03:50:47;;;;;;;7.78;6.95;;;;;;;;;;5136473;27;20046;-67
2023/06/10 03:53:13;;;;;;;9.85;6.85;;;;;;;;;;5136561;27;20034;-67
2023/06/10 03:55:41;;;;;;;8.43;6.97;;;;;;;;;;5136843;27;20056;-67
2023/06/10 03:58:07;;;;;;;9.25;6.25;;;;;;;;;;5119714;27;20027;-67
2023/06/10 04:00:41;;;;;;;8.52;7.18;;;;;;;;;;5139591;27;20495;-69
2023/06/10 04:03:08;;;;;;;7.90;7.10;;;;;;;;;;5158415;27;20505;-70
2023/06/10 04:05:37;;;;;;;10.20;7.00;;;;;;;;;;5137497;27;20022;-70
2023/06/10 04:08:02;;;;;;;8.75;6.97;;;;;;;;;;5139688;27;20019;-70
2023/06/10 04:10:29;;;;;;;9.77;7.25;;;;;;;;;;5158269;27;20074;-69
2023/06/10 04:12:54;;;;;;;7.60;6.90;;;;;;;;;;5158254;27;20007;-69
2023/06/10 04:15:21;;;;;;;7.78;7.07;;;;;;;;;;5139526;27;20030;-68
2023/06/10 04:17:49;;;;;;;8.93;6.93;;;;;;;;;;5139307;27;20023;-68
2023/06/10 04:20:16;;;;;;;8.07;7.20;;;;;;;;;;5137207;27;20030;-68
2023/06/10 04:22:44;;;;;;;9.00;7.15;;;;;;;;;;5122299;27;20492;-68
2023/06/10 04:25:10;;;;;;;7.45;6.75;;;;;;;;;;5139285;27;20015;-68
2023/06/10 04:27:35;;;;;;;6.78;6.07;;;;;;;;;;5157797;27;20046;-69
2023/06/10 04:30:02;;;;;;;9.85;6.18;;;;;;;;;;4240567;22;20234;-61
2023/06/10 04:32:30;;;;;;;8.05;5.85;;;;;;;;;;5102157;22;20054;-66
2023/06/10 04:34:56;;;;;;;7.05;5.80;;;;;;;;;;5078035;28;20028;-65
2023/06/10 04:37:30;;;;;;;6.30;5.70;;;;;;;;;;5077786;28;20509;-67
2023/06/10 04:39:56;;;;;;;6.30;5.70;;;;;;;;;;5077825;28;20020;-67
2023/06/10 04:42:22;;;;;;;5.50;5.00;;;;;;;;;;5077798;28;20540;-65
2023/06/10 04:44:49;;;;;;;6.13;5.60;;;;;;;;;;5077568;28;20039;-66
2023/06/10 04:47:17;;;;;;;5.57;5.07;;;;;;;;;;5077826;28;20028;-66
2023/06/10 04:49:44;;;;;;;6.10;5.10;;;;;;;;;;5077182;28;20024;-67
2023/06/10 04:52:09;;;;;;;5.75;5.25;;;;;;;;;;5095982;28;20077;-67
2023/06/10 04:54:38;;;;;;;5.90;5.35;;;;;;;;;;5077593;28;20024;-68
2023/06/10 04:57:03;;;;;;;5.68;5.20;;;;;;;;;;5096070;28;20036;-69
2023/06/10 04:59:29;;;;;;;4.88;4.47;;;;;;;;;;5095316;28;20103;-67
2023/06/10 05:01:55;;;;;;;5.43;5.03;;;;;;;;;;5095775;28;20036;-67
2023/06/10 05:04:20;;;;;;;5.13;4.80;;;;;;;;;;5095464;28;20431;-68
2023/06/10 05:06:46;;;;;;;5.97;5.45;;;;;;;;;;5095028;28;20028;-68
2023/06/10 05:09:11;;;;;;;5.53;4.85;;;;;;;;;;5095186;28;20050;-69
2023/06/10 05:11:36;;;;;;;7.00;5.10;;;;;;;;;;5094542;28;20484;-69
2023/06/10 05:14:02;;;;;;;7.55;4.70;;;;;;;;;;5095243;28;20464;-67
2023/06/10 05:16:27;;;;;;;6.10;4.90;;;;;;;;;;5095013;28;20020;-67
2023/06/10 05:18:53;;;;;;;5.68;5.18;;;;;;;;;;5095438;28;20383;-67
2023/06/10 05:21:18;;;;;;;5.32;4.82;;;;;;;;;;5095009;28;20043;-68
2023/06/10 05:23:43;;;;;;;5.30;4.80;;;;;;;;;;5095382;28;20040;-67
2023/06/10 05:26:09;;;;;;;5.35;4.85;;;;;;;;;;5095575;28;20116;-68
2023/06/10 05:28:34;;;;;;;6.50;5.20;;;;;;;;;;5095223;28;20036;-68
2023/06/10 05:30:59;;;;;;;5.43;5.03;;;;;;;;;;5076986;28;20398;-68
2023/06/10 05:33:24;;;;;;;6.97;5.40;;;;;;;;;;5095111;28;20032;-68
2023/06/10 05:35:50;;;;;;;5.80;5.28;;;;;;;;;;5095021;28;20056;-67
2023/06/10 05:38:15;;;;;;;7.53;5.82;;;;;;;;;;5095160;28;20451;-67
2023/06/10 05:40:41;;;;;;;6.07;5.10;;;;;;;;;;5095363;28;20463;-67
2023/06/10 05:43:06;;;;;;;5.13;4.72;;;;;;;;;;5076698;28;20073;-67
2023/06/10 05:45:32;;;;;;;5.60;5.10;;;;;;;;;;5076016;28;20032;-68
2023/06/10 05:47:57;;;;;;;5.78;5.38;;;;;;;;;;5094158;28;20383;-70
2023/06/10 05:50:24;;;;;;;5.70;5.20;;;;;;;;;;5093591;28;20047;-67
2023/06/10 05:52:49;;;;;;;5.78;5.05;;;;;;;;;;5094710;28;20115;-67
2023/06/10 05:55:15;;;;;;;6.85;5.63;;;;;;;;;;5094675;28;20138;-70
2023/06/10 05:57:41;;;;;;;6.05;5.43;;;;;;;;;;5092896;28;20072;-71
2023/06/10 06:00:07;;;;;;;6.03;5.43;;;;;;;;;;5094040;28;20407;-70
2023/06/10 06:02:37;;;;;;;5.78;5.20;;;;;;;;;;5094412;28;20036;-69
2023/06/10 06:05:03;;;;;;;5.57;5.18;;;;;;;;;;5094446;28;20039;-69
2023/06/10 06:07:28;;;;;;;9.63;5.80;;;;;;;;;;5094698;28;20020;-75
2023/06/10 06:09:53;;;;;;;5.65;5.25;;;;;;;;;;5094215;28;20023;-76
2023/06/10 06:12:19;;;;;;;6.13;5.53;;;;;;;;;;5093228;28;20479;-72
2023/06/10 06:14:44;;;;;;;7.55;5.38;;;;;;;;;;5074991;28;20383;-71
2023/06/10 06:17:10;;;;;;;5.93;5.32;;;;;;;;;;5094012;28;20024;-71
2023/06/10 06:19:36;;;;;;;6.07;5.57;;;;;;;;;;5076045;28;20352;-74
2023/06/10 06:22:02;;;;;;;5.65;5.20;;;;;;;;;;5094298;28;20410;-71
2023/06/10 06:24:27;;;;;;;6.00;5.40;;;;;;;;;;5090336;28;20055;-68
2023/06/10 06:26:53;;;;;;;5.93;5.47;;;;;;;;;;5090761;28;20020;-68
2023/06/10 06:29:18;;;;;;;6.10;5.10;;;;;;;;;;5072381;28;20379;-72
2023/06/10 06:31:43;;;;;;;5.15;4.65;;;;;;;;;;5090293;28;20044;-71
2023/06/10 06:34:09;;;;;;;5.55;5.13;;;;;;;;;;5090623;28;20707;-69
2023/06/10 06:36:34;;;;;;;6.97;5.50;;;;;;;;;;5091097;28;20039;-71
2023/06/10 06:38:59;;;;;;;5.85;5.22;;;;;;;;;;5073599;28;20032;-71
2023/06/10 06:41:28;;;;;;;7.00;5.20;;;;;;;;;;5056482;28;20036;-71
2023/06/10 06:43:54;;;;;;;4.82;4.53;;;;;;;;;;5072585;28;20032;-71
2023/06/10 06:46:23;;;;;;;5.38;4.88;;;;;;;;;;5090119;28;20066;-71
2023/06/10 06:48:48;;;;;;;4.72;4.40;;;;;;;;;;5090313;28;20032;-71
2023/06/10 06:51:14;;;;;;;4.90;4.57;;;;;;;;;;5089969;28;20085;-68
2023/06/10 06:53:44;;;;;;;5.20;4.80;;;;;;;;;;5090144;28;20024;-72
2023/06/10 06:56:10;;;;;;;5.10;4.60;;;;;;;;;;5090186;28;20383;-71
2023/06/10 06:58:35;;;;;;;4.70;4.40;;;;;;;;;;5091000;28;20024;-72
2023/06/10 07:01:00;;;;;;;6.07;4.40;;;;;;;;;;5073201;28;20114;-73
2023/06/10 07:03:26;;;;;;;5.47;4.20;;;;;;;;;;5090486;28;20020;-72
2023/06/10 07:05:51;;;;;;;4.88;4.53;;;;;;;;;;5072440;28;20032;-72
2023/06/10 07:08:16;;;;;;;4.80;4.38;;;;;;;;;;5089840;28;20064;-73
2023/06/10 07:10:42;;;;;;;4.65;4.32;;;;;;;;;;5072631;28;20028;-72
2023/06/10 07:13:07;;;;;;;4.70;4.30;;;;;;;;;;5090823;28;20062;-73
2023/06/10 07:15:33;;;;;;;7.60;4.00;;;;;;;;;;5072258;28;20032;-73
2023/06/10 07:17:58;;;;;;;4.90;4.50;;;;;;;;;;5071078;28;20071;-72
2023/06/10 07:20:24;;;;;;;4.30;4.00;;;;;;;;;;5090284;28;20467;-73
2023/06/10 07:22:49;;;;;;;4.43;3.90;;;;;;;;;;5090297;28;20028;-72
2023/06/10 07:25:15;;;;;;;4.45;4.15;;;;;;;;;;5094044;28;20059;-72
2023/06/10 07:27:40;;;;;;;4.60;4.20;;;;;;;;;;5094257;28;20057;-72
2023/06/10 07:30:08;;;;;;;4.32;4.03;;;;;;;;;;5076110;28;20078;-72
2023/06/10 07:32:35;;;;;;;4.82;4.15;;;;;;;;;;5093217;28;20113;-72
2023/06/10 07:35:00;;;;;;;4.57;4.20;;;;;;;;;;5075148;28;20062;-73
2023/06/10 07:37:26;;;;;;;5.07;3.67;;;;;;;;;;5073619;28;20028;-73
2023/06/10 07:39:51;;;;;;;5.32;3.80;;;;;;;;;;5090199;28;20088;-73
2023/06/10 07:42:17;;;;;;;5.03;4.32;;;;;;;;;;5074142;28;20089;-73
2023/06/10 07:44:43;;;;;;;4.43;4.13;;;;;;;;;;5091875;28;20031;-72
2023/06/10 07:47:08;;;;;;;4.75;4.45;;;;;;;;;;5073795;28;20032;-73
2023/06/10 07:49:33;;;;;;;6.25;5.13;;;;;;;;;;5073297;28;20036;-73
2023/06/10 07:51:59;;;;;;;5.30;4.80;;;;;;;;;;5091669;28;20027;-73
2023/06/10 07:54:24;;;;;;;4.20;4.00;;;;;;;;;;5092528;28;20515;-73
2023/06/10 07:56:52;;;;;;;5.28;4.95;;;;;;;;;;5093121;28;20033;-73
2023/06/10 07:59:17;;;;;;;4.35;4.05;;;;;;;;;;5093217;28;20077;-73
2023/06/10 08:01:42;;;;;;;4.60;4.32;;;;;;;;;;5074778;28;20032;-73
2023/06/10 08:04:08;;;;;;;4.35;3.75;;;;;;;;;;5092933;28;20032;-73
2023/06/10 08:06:33;;;;;;;5.20;4.70;;;;;;;;;;5091354;28;20032;-73
2023/06/10 08:08:59;;;;;;;5.22;4.80;;;;;;;;;;5092290;28;20032;-73
2023/06/10 08:11:28;;;;;;;4.80;4.45;;;;;;;;;;5074782;28;20024;-73
2023/06/10 08:13:54;;;;;;;4.80;4.50;;;;;;;;;;5092762;28;20047;-73
2023/06/10 08:16:19;;;;;;;5.35;4.95;;;;;;;;;;5092305;28;20036;-73
2023/06/10 08:18:45;;;;;;;5.13;4.68;;;;;;;;;;5074564;28;20038;-73
2023/06/10 08:21:10;;;;;;;4.82;4.47;;;;;;;;;;5093038;28;20024;-73
2023/06/10 08:23:35;;;;;;;5.45;5.00;;;;;;;;;;5092006;28;20479;-70
2023/06/10 08:26:01;;;;;;;5.28;4.78;;;;;;;;;;5092745;28;20028;-64
2023/06/10 08:28:26;;;;;;;5.30;4.95;;;;;;;;;;5092492;28;20036;-72
2023/06/10 08:30:51;;;;;;;5.45;4.95;;;;;;;;;;5092219;28;20051;-72
2023/06/10 08:33:18;;;;;;;4.80;4.43;;;;;;;;;;5092536;28;20036;-70
2023/06/10 08:35:43;;;;;;;5.43;5.03;;;;;;;;;;5092525;28;20115;-71
2023/06/10 08:38:08;;;;;;;5.32;4.93;;;;;;;;;;5092115;28;20108;-76
2023/06/10 08:40:34;;;;;;;5.38;4.97;;;;;;;;;;5074093;28;20498;-74
2023/06/10 08:43:07;;;;;;;5.50;4.53;;;;;;;;;;5074194;28;20039;-69
2023/06/10 08:45:35;;;;;;;5.65;5.05;;;;;;;;;;5091050;28;20036;-71
2023/06/10 08:48:02;;;;;;;6.55;4.75;;;;;;;;;;5091229;28;20047;-72
2023/06/10 08:50:30;;;;;;;5.78;5.28;;;;;;;;;;5089997;28;20028;-70
2023/06/10 08:52:57;;;;;;;5.25;4.88;;;;;;;;;;5073513;28;20453;-70
2023/06/10 08:55:38;;;;;;;5.53;4.97;;;;;;;;;;5091653;28;20119;-69
2023/06/10 08:58:05;;;;;;;4.47;4.18;;;;;;;;;;5091471;28;20036;-71
2023/06/10 09:00:31;;;;;;;6.68;4.53;;;;;;;;;;5091035;28;20382;-62
2023/06/10 09:02:57;;;;;;;4.78;4.38;;;;;;;;;;5090037;28;20032;-70
2023/06/10 09:05:23;;;;;;;4.57;4.28;;;;;;;;;;5072660;28;20030;-71
2023/06/10 09:07:48;;;;;;;4.38;3.97;;;;;;;;;;5091105;28;20387;-70
2023/06/10 09:10:14;;;;;;;4.03;3.83;;;;;;;;;;5090238;28;20387;-71
2023/06/10 09:12:39;;;;;;;4.50;4.20;;;;;;;;;;5072799;28;20038;-70
2023/06/10 09:15:05;;;;;;;4.68;4.22;;;;;;;;;;5089909;28;20028;-70
2023/06/10 09:17:31;;;;;;;4.38;4.00;;;;;;;;;;5091156;28;20036;-71
2023/06/10 09:19:57;;;;;;;3.72;3.45;;;;;;;;;;5072198;28;20024;-71
2023/06/10 09:22:23;;;;;;;4.60;4.22;;;;;;;;;;5072326;28;20415;-71
2023/06/10 09:24:48;;;;;;;4.28;3.95;;;;;;;;;;5072140;28;20034;-71
2023/06/10 09:27:14;;;;;;;4.38;3.90;;;;;;;;;;5090268;28;20032;-68
2023/06/10 09:29:53;;;;;;;5.55;4.40;;;;;;;;;;5091497;28;20432;-73
2023/06/10 09:32:19;;;;;;;4.85;4.53;;;;;;;;;;5091360;28;20032;-62
2023/06/10 09:34:44;;;;;;;4.55;4.25;;;;;;;;;;5091553;28;20115;-72
2023/06/10 09:37:12;;;;;;;4.50;4.10;;;;;;;;;;5087062;28;20032;-72
2023/06/10 09:39:37;;;;;;;4.70;4.32;;;;;;;;;;5072108;28;20024;-71
2023/06/10 09:42:11;;;;;;;4.05;3.55;;;;;;;;;;5089914;28;20048;-71
2023/06/10 09:44:38;;;;;;;4.85;4.45;;;;;;;;;;5089534;28;20413;-71
2023/06/10 09:47:04;;;;;;;4.32;4.10;;;;;;;;;;5089676;28;20067;-63
2023/06/10 09:49:29;;;;;;;4.60;4.15;;;;;;;;;;5071419;28;20051;-63
2023/06/10 09:51:55;;;;;;;5.15;3.88;;;;;;;;;;5090441;28;20040;-63
2023/06/10 09:54:21;;;;;;;3.85;3.60;;;;;;;;;;5090515;28;20053;-63
2023/06/10 09:56:47;;;;;;;5.07;4.28;;;;;;;;;;5090569;28;20714;-63
2023/06/10 09:59:13;;;;;;;3.90;3.70;;;;;;;;;;5090802;28;20477;-63
2023/06/10 10:01:38;;;;;;;3.47;3.22;;;;;;;;;;5090797;28;20028;-63
2023/06/10 10:04:04;;;;;;;3.55;3.35;;;;;;;;;;5090615;28;20067;-63
2023/06/10 10:06:30;;;;;;;3.60;3.30;;;;;;;;;;5071680;28;20062;-62
2023/06/10 10:08:55;;;;;;;3.90;3.40;;;;;;;;;;5090446;28;20140;-63
2023/06/10 10:11:25;;;;;;;3.58;3.38;;;;;;;;;;5090280;28;20063;-63
2023/06/10 10:13:52;;;;;;;3.78;3.10;;;;;;;;;;5090459;28;20028;-63
2023/06/10 10:16:19;;;;;;;3.67;3.38;;;;;;;;;;5089810;28;20048;-63
2023/06/10 10:18:55;;;;;;;3.40;3.20;;;;;;;;;;5072199;28;20042;-63
2023/06/10 10:21:23;;;;;;;3.20;3.00;;;;;;;;;;5071696;28;20032;-63
2023/06/10 10:24:02;;;;;;;3.17;2.97;;;;;;;;;;5071672;28;20023;-63
2023/06/10 10:26:29;;;;;;;3.70;3.20;;;;;;;;;;5071556;28;20089;-63
2023/06/10 10:29:01;;;;;;;3.70;3.40;;;;;;;;;;5090180;28;20024;-63
2023/06/10 10:31:27;;;;;;;4.45;3.30;;;;;;;;;;5090411;28;20075;-63
2023/06/10 10:33:57;;;;;;;4.32;3.70;;;;;;;;;;5090533;28;20074;-63
2023/06/10 10:36:23;;;;;;;4.30;3.50;;;;;;;;;;5089858;28;20059;-63
2023/06/10 10:38:51;;;;;;;3.25;3.05;;;;;;;;;;5089985;28;20082;-63
2023/06/10 10:41:17;;;;;;;3.75;3.45;;;;;;;;;;5089632;28;20043;-63
2023/06/10 10:43:43;;;;;;;3.88;3.58;;;;;;;;;;5089320;28;20028;-63
2023/06/10 10:46:13;;;;;;;4.22;3.90;;;;;;;;;;5088745;28;20490;-63
2023/06/10 10:48:38;;;;;;;3.95;3.65;;;;;;;;;;5090286;28;20023;-62
2023/06/10 10:51:16;;;;;;;4.18;3.70;;;;;;;;;;5090935;28;20024;-71
2023/06/10 10:53:44;;;;;;;3.55;3.33;;;;;;;;;;5089379;28;20040;-71
2023/06/10 10:56:14;;;;;;;3.92;3.72;;;;;;;;;;5089820;28;20036;-71
2023/06/10 10:58:39;;;;;;;4.30;3.90;;;;;;;;;;5092195;28;20036;-71
2023/06/10 11:01:12;;;;;;;3.80;3.50;;;;;;;;;;5074710;28;20047;-71
2023/06/10 11:03:42;;;;;;;3.33;3.13;;;;;;;;;;5093047;28;20016;-71
2023/06/10 11:06:11;;;;;;;3.33;3.13;;;;;;;;;;5074596;28;20036;-71
2023/06/10 11:08:40;;;;;;;3.63;3.43;;;;;;;;;;5092960;28;20444;-71
2023/06/10 11:11:20;;;;;;;3.88;3.47;;;;;;;;;;5093611;28;20051;-71
2023/06/10 11:13:58;;;;;;;60.70;29.50;;;;;;;;;;5093617;28;20071;-71
2023/06/10 11:16:25;;;;;;;4.00;3.60;;;;;;;;;;5092726;28;20040;-71
2023/06/10 11:18:53;;;;;;;7.75;5.65;;;;;;;;;;5093621;28;20035;-71
2023/06/10 11:21:18;;;;;;;6.97;6.28;;;;;;;;;;5093187;28;20089;-71
2023/06/10 11:23:43;;;;;;;4.15;3.75;;;;;;;;;;5058386;28;20039;-71
2023/06/10 11:26:16;;;;;;;4.30;3.90;;;;;;;;;;5074384;28;20032;-71
2023/06/10 11:28:47;;;;;;;4.22;3.83;;;;;;;;;;5092789;28;20024;-71
2023/06/10 11:31:19;;;;;;;4.82;3.72;;;;;;;;;;5093399;28;20043;-71
2023/06/10 11:33:45;;;;;;;5.00;4.50;;;;;;;;;;5093497;28;20808;-71
2023/06/10 11:36:11;;;;;;;3.85;3.60;;;;;;;;;;5093168;28;20028;-71
2023/06/10 11:38:36;;;;;;;3.95;3.65;;;;;;;;;;5092695;28;20127;-63
2023/06/10 11:41:02;;;;;;;3.97;3.78;;;;;;;;;;5075584;28;20032;-63
2023/06/10 11:43:27;;;;;;;4.03;3.70;;;;;;;;;;5093972;28;20032;-63
2023/06/10 11:45:56;;;;;;;4.03;3.72;;;;;;;;;;5093112;28;20092;-63
2023/06/10 11:48:21;;;;;;;3.80;3.60;;;;;;;;;;5092632;28;20119;-63
2023/06/10 11:50:46;;;;;;;3.60;3.40;;;;;;;;;;5074847;28;20096;-63
2023/06/10 11:53:12;;;;;;;4.88;4.47;;;;;;;;;;5093194;28;20036;-63
2023/06/10 11:55:44;;;;;;;4.53;4.20;;;;;;;;;;5074979;28;20027;-63
2023/06/10 11:58:14;;;;;;;4.65;4.25;;;;;;;;;;5074190;28;20646;-62
2023/06/10 12:00:50;;;;;;;4.80;4.40;;;;;;;;;;5093456;28;20032;-63
2023/06/10 12:03:15;;;;;;;5.75;5.35;;;;;;;;;;5075069;28;20139;-62
2023/06/10 12:06:02;;;;;;;5.82;4.50;;;;;;;;;;5092977;28;20759;-62
2023/06/10 12:08:28;;;;;;;2.92;2.72;;;;;;;;;;5092117;28;20048;-73
2023/06/10 12:10:53;;;;;;;3.90;3.60;;;;;;;;;;5092114;28;20023;-72
2023/06/10 12:13:19;;;;;;;3.88;3.60;;;;;;;;;;5074705;28;20452;-73
2023/06/10 12:15:45;;;;;;;4.40;4.10;;;;;;;;;;5091847;28;20063;-63
2023/06/10 12:18:18;;;;;;;3.50;3.25;;;;;;;;;;5091886;28;20051;-63
2023/06/10 12:20:43;;;;;;;4.28;3.97;;;;;;;;;;5092299;28;20028;-63
2023/06/10 12:23:12;;;;;;;4.43;4.13;;;;;;;;;;5091907;28;20035;-63
2023/06/10 12:25:38;;;;;;;4.38;4.05;;;;;;;;;;5090680;28;20451;-63
2023/06/10 12:28:03;;;;;;;4.80;4.45;;;;;;;;;;5072277;28;20027;-63
2023/06/10 12:30:31;;;;;;;4.95;4.45;;;;;;;;;;5073458;28;20103;-63
2023/06/10 12:32:56;;;;;;;4.03;3.72;;;;;;;;;;5086377;28;20891;-63
2023/06/10 12:35:26;;;;;;;4.35;4.05;;;;;;;;;;5090895;28;20039;-62
2023/06/10 12:38:00;;;;;;;4.30;3.77;;;;;;;;;;5091472;28;20399;-63
2023/06/10 12:40:27;;;;;;;3.92;3.63;;;;;;;;;;5091335;28;20262;-63
2023/06/10 12:42:53;;;;;;;3.83;3.60;;;;;;;;;;5089571;28;20533;-63
2023/06/10 12:45:26;;;;;;;3.78;3.53;;;;;;;;;;5073856;28;20097;-63
2023/06/10 12:47:51;;;;;;;4.00;3.70;;;;;;;;;;5091196;28;20024;-63
2023/06/10 12:50:17;;;;;;;3.97;3.65;;;;;;;;;;5091030;28;20158;-63
2023/06/10 12:52:42;;;;;;;5.18;4.40;;;;;;;;;;5090656;28;20490;-63
2023/06/10 12:55:08;;;;;;;3.78;3.47;;;;;;;;;;5089874;28;20030;-63
2023/06/10 12:57:33;;;;;;;3.88;3.67;;;;;;;;;;5072494;28;20495;-63
2023/06/10 13:00:03;;;;;;;4.07;3.78;;;;;;;;;;5090661;28;20027;-63
2023/06/10 13:02:29;;;;;;;;;;;;;;;;;;5091205;28;20105;-63
2023/06/10 13:04:54;;;;;;;3.55;3.25;;;;;;;;;;5090827;28;20323;-63
2023/06/10 13:07:19;;;;;;;4.25;3.92;;;;;;;;;;5090979;28;20012;-63
2023/06/10 13:09:48;;;;;;;3.92;3.63;;;;;;;;;;5073198;28;20134;-63
2023/06/10 13:12:13;;;;;;;4.32;4.03;;;;;;;;;;5073324;28;20043;-63
2023/06/10 13:14:39;;;;;;;3.70;3.50;;;;;;;;;;5073665;28;20032;-63
2023/06/10 13:17:06;;;;;;;3.90;3.60;;;;;;;;;;5091352;28;20060;-62
2023/06/10 13:19:33;;;;;;;4.53;3.53;;;;;;;;;;5092040;28;20040;-71
2023/06/10 13:21:58;;;;;;;7.15;4.00;;;;;;;;;;5089149;28;20043;-72
2023/06/10 13:24:23;;;;;;;4.28;3.97;;;;;;;;;;5091633;28;20036;-72
2023/06/10 13:26:49;;;;;;;4.55;4.28;;;;;;;;;;5073315;28;20047;-72
2023/06/10 13:29:14;;;;;;;3.63;3.42;;;;;;;;;;5073121;28;20031;-72
2023/06/10 13:31:42;;;;;;;3.70;3.50;;;;;;;;;;5073217;28;20685;-72
2023/06/10 13:34:08;;;;;;;3.38;3.17;;;;;;;;;;5091619;28;20066;-72
2023/06/10 13:36:33;;;;;;;4.70;4.40;;;;;;;;;;5056092;28;20694;-72
2023/06/10 13:38:59;;;;;;;4.60;4.30;;;;;;;;;;5091204;28;20031;-72
2023/06/10 13:41:24;;;;;;;4.53;4.20;;;;;;;;;;5091309;28;20044;-72
2023/06/10 13:43:50;;;;;;;4.32;3.90;;;;;;;;;;5091074;28;20064;-72
2023/06/10 13:46:15;;;;;;;4.40;4.18;;;;;;;;;;5090796;28;20030;-72
2023/06/10 13:48:40;;;;;;;4.45;4.10;;;;;;;;;;5090620;28;20360;-72
2023/06/10 13:51:06;;;;;;;4.05;3.75;;;;;;;;;;5091076;28;20024;-72
2023/06/10 13:53:32;;;;;;;4.60;4.10;;;;;;;;;;5091403;28;20064;-72
2023/06/10 13:55:57;;;;;;;4.65;4.25;;;;;;;;;;5090964;28;20016;-72
2023/06/10 13:58:22;;;;;;;4.40;4.05;;;;;;;;;;5072204;28;20460;-72
2023/06/10 14:00:48;;;;;;;4.30;3.90;;;;;;;;;;5071539;28;20028;-72
2023/06/10 14:03:13;;;;;;;4.55;4.32;;;;;;;;;;5071882;28;20068;-72
2023/06/10 14:05:39;;;;;;;3.75;3.45;;;;;;;;;;5090095;28;20032;-72
2023/06/10 14:08:04;;;;;;;12.63;8.38;;;;;;;;;;5072575;28;20085;-73
2023/06/10 14:10:30;;;;;;;7.22;6.53;;;;;;;;;;5072287;28;20016;-72
2023/06/10 14:12:55;;;;;;;6.82;5.90;;;;;;;;;;5089431;28;20122;-72
2023/06/10 14:15:20;;;;;;;8.48;5.10;;;;;;;;;;5090366;28;20028;-72
2023/06/10 14:17:46;;;;;;;8.77;6.13;;;;;;;;;;5090333;28;20070;-72
2023/06/10 14:20:11;;;;;;;7.40;6.70;;;;;;;;;;5090719;28;20116;-72
2023/06/10 14:22:36;;;;;;;6.10;5.50;;;;;;;;;;5090541;28;20024;-72
2023/06/10 14:25:02;;;;;;;9.68;5.22;;;;;;;;;;5090127;28;20032;-72
2023/06/10 14:27:28;;;;;;;6.10;5.38;;;;;;;;;;5090049;28;20032;-72
2023/06/10 14:29:53;;;;;;;6.10;5.60;;;;;;;;;;5089983;28;20039;-72
2023/06/10 14:32:18;;;;;;;5.85;5.35;;;;;;;;;;5090108;28;20048;-72
2023/06/10 14:34:44;;;;;;;5.28;4.60;;;;;;;;;;5090714;28;20040;-63
2023/06/10 14:37:12;;;;;;;5.25;4.78;;;;;;;;;;5090470;28;20491;-72
2023/06/10 14:39:38;;;;;;;6.47;5.40;;;;;;;;;;5090798;28;20032;-72